LIEALIME

Guest
Details From LIEA - Alghero
To LIME - Bergamo Orio Al Serio
Flight Number -
Tags Generated
Created
Modified
Stats Distance 310 nm / 574 km
Max Altitude 0 ft / 0 m
Waypoints 3
Social Downloads 2
Likes 0
Share VATSIM

Download

Looking for another format? Having issues loading an existing format? Contact us
Advertisement - Login to hide

Notes

Generated

Route

LIEA TREVI LIME

ID Type Via Altitude Latitude Longitude Leg Dist Tot Dist Heading (true) Name
O LIEA APT - 0 ft / 0 m 40.61985˚ 8.28339˚ - 0 nm - -
TREVI FIX - 0 ft / 0 m 45.60333˚ 9.69333˚ 305 nm 305 nm 11° / 12° -
O LIME APT - 0 ft / 0 m 45.67113˚ 9.68904˚ 4 nm 309 nm 357° / 357° -

Altitude Profile

Advertisement - Login to hide

Weather


0- 5 10 15 20 25 30 35+ Temperature / ° C

Clouds and Precipitation
Forecast for 2017-12-14 00:00 UTC. Updated 2 hours ago

Ground ~20,000 ft ~40,000 ft Winds

LIEA

Details ICAO LIEA (AHO)
Name ALGHERO
Region Italy
Timezone Europe/Rome (UTC+1.0)
Stats Elevation 87 ft / 27 m (AMSL)
Location 40.632132° 8.290774°
Runways 1
Magnetic Variation 2.194° E

METAR

LIEA 132050Z 24014G25KT 9999 SCT035 13/06 Q1022

Decode

TAF

TAF AMD LIEA 131941Z 1318/1419 25010KT 9999 SCT030 TEMPO 1319/1324 25018G30KT BECMG 1402/1404 23013KT TEMPO 1412/1418 RA

Decode

Departure Runways

ID Width Length Bearing (true) Bearing (mag) Surface Threshold Offset Overrun Length
02 148 ft / 45 m 9,854 ft / 3,004 m 24.51° 22.32° Asphalt 0 ft / 0 m 0 ft / 0 m
20 148 ft / 45 m 9,854 ft / 3,004 m 204.52° 202.33° Asphalt 0 ft / 0 m 0 ft / 0 m

LIME

Details ICAO LIME (BGY)
Name Bergamo Orio Al Serio
Region Italy
Timezone Europe/Rome (UTC+1.0)
Stats Elevation 779 ft / 237 m (AMSL)
Location 45.672004° 9.706892°
Runways 2
Magnetic Variation 2.603° E

METAR

LIME 132050Z 02003KT 350V060 7000 SCT020 01/M00 Q1013 NOSIG

Decode

TAF

TAF LIME 131700Z 1318/1418 VRB05KT 3000 BR NSC TEMPO 1320/1407 0800 BCFG BKN012 BECMG 1407/1410 6000

Decode

Destination Runways

ID Width Length Bearing (true) Bearing (mag) Surface Threshold Offset Overrun Length
10 148 ft / 45 m 9,897 ft / 3,017 m 104.89° 102.29° Asphalt 312 ft / 95 m 0 ft / 0 m
12 59 ft / 18 m 2,665 ft / 812 m 121.47° 118.87° Asphalt 197 ft / 60 m 0 ft / 0 m
28 148 ft / 45 m 9,897 ft / 3,017 m 284.91° 282.31° Asphalt 712 ft / 217 m 0 ft / 0 m
30 59 ft / 18 m 2,665 ft / 812 m 301.48° 298.88° Asphalt 312 ft / 95 m 0 ft / 0 m

Approach Navaids

Runway Type Ident Frequency Range Bearing (true) Bearing (mag) Slope Elevation
28 Localiser BRM 108.70 MHz 18 nm / 33 km 285.08° 282.48° - 779 ft / 237 m (AMSL)
28 Glidescope BRM 108.70 MHz 10 nm / 19 km 284.90° 282.30° 3.00° 779 ft / 237 m (AMSL)
28 DME BRM 108.70 MHz 18 nm / 33 km - - - 779 ft / 237 m (AMSL)

Popular Alternatives